createdAt,value
2023-04-27T00:02:19.978Z,4.56
2023-04-27T00:22:19.834Z,4.25
2023-04-27T00:27:19.504Z,4.10
2023-04-27T00:32:19.777Z,4.04
2023-04-27T00:37:20.304Z,4.04
2023-04-27T00:42:19.665Z,3.94
2023-04-27T00:47:19.696Z,3.92
2023-04-27T00:52:19.923Z,3.91
2023-04-27T00:57:19.966Z,3.82
2023-04-27T01:02:21.169Z,3.77
2023-04-27T01:07:24.622Z,3.77
2023-04-27T01:12:20.096Z,3.75
2023-04-27T01:17:19.770Z,3.69
2023-04-27T01:22:20.415Z,3.55
2023-04-27T01:27:19.631Z,3.45
2023-04-27T01:32:20.396Z,3.47
2023-04-27T01:37:20.167Z,3.41
2023-04-27T01:42:19.656Z,3.41
2023-04-27T01:47:19.924Z,3.39
2023-04-27T01:52:19.844Z,3.36
2023-04-27T01:52:55.747Z,3.36
2023-04-27T02:32:10.716Z,3.20
2023-04-27T02:37:11.160Z,3.13
2023-04-27T02:42:10.991Z,3.07
2023-04-27T02:47:10.872Z,3.05
2023-04-27T02:52:10.654Z,3.02
2023-04-27T02:57:11.055Z,3.00
2023-04-27T03:02:10.682Z,3.08
2023-04-27T03:07:11.187Z,3.07
2023-04-27T03:12:10.909Z,3.14
2023-04-27T03:17:10.773Z,3.20
2023-04-27T03:20:00.260Z,3.20
2023-04-27T03:22:11.280Z,3.20
2023-04-27T03:25:55.064Z,3.20
2023-04-27T03:27:10.780Z,3.20
2023-04-27T03:32:10.796Z,3.27
2023-04-27T03:37:10.925Z,3.32
2023-04-27T03:42:10.714Z,3.31
2023-04-27T03:47:10.743Z,3.43
2023-04-27T03:52:11.357Z,3.54
2023-04-27T03:57:10.691Z,3.57
2023-04-27T04:02:10.754Z,3.60
2023-04-27T04:07:11.015Z,3.62
2023-04-27T04:09:30.110Z,3.67
2023-04-27T04:12:10.609Z,3.67
2023-04-27T04:15:49.389Z,3.66
2023-04-27T04:17:10.704Z,3.66
2023-04-27T04:22:11.126Z,3.73
2023-04-27T04:27:10.684Z,3.79
2023-04-27T04:32:11.328Z,3.85
2023-04-27T04:37:10.690Z,3.94
2023-04-27T04:42:10.618Z,4.03
2023-04-27T04:47:11.018Z,4.10
2023-04-27T04:52:11.179Z,4.15
2023-04-27T04:57:10.707Z,4.21
2023-04-27T05:02:10.634Z,4.37
2023-04-27T05:07:12.006Z,4.58
2023-04-27T05:12:10.623Z,4.82
2023-04-27T05:17:11.417Z,5.01
2023-04-27T05:22:10.759Z,5.21
2023-04-27T05:27:11.977Z,5.38
2023-04-27T05:32:10.753Z,5.64
2023-04-27T05:37:10.771Z,5.87
2023-04-27T05:42:10.544Z,6.16
2023-04-27T05:47:10.578Z,6.49
2023-04-27T05:52:10.764Z,6.70
2023-04-27T05:53:32.073Z,6.88
2023-04-27T05:53:53.349Z,6.88
2023-04-27T05:57:10.508Z,6.88
2023-04-27T06:02:11.034Z,7.12
2023-04-27T06:06:03.345Z,7.42
2023-04-27T06:07:11.591Z,7.42
2023-04-27T06:12:10.826Z,7.75
2023-04-27T06:17:10.875Z,8.41
2023-04-27T06:22:10.613Z,8.94
2023-04-27T06:27:10.812Z,9.22
2023-04-27T06:32:11.312Z,9.39
2023-04-27T06:37:10.699Z,9.85
2023-04-27T06:42:10.800Z,10.14
2023-04-27T06:47:10.952Z,10.70
2023-04-27T06:52:10.586Z,11.23
2023-04-27T06:57:10.600Z,11.60
2023-04-27T07:02:10.835Z,12.09
2023-04-27T07:07:10.520Z,12.65
2023-04-27T07:12:10.563Z,13.20
2023-04-27T07:17:10.758Z,13.69
2023-04-27T07:22:10.732Z,14.14
2023-04-27T07:27:10.731Z,14.44
2023-04-27T07:32:10.873Z,15.17
2023-04-27T07:37:10.596Z,16.43
2023-04-27T07:42:11.547Z,17.43
2023-04-27T07:47:10.682Z,18.25
2023-04-27T07:52:10.494Z,19.08
2023-04-27T07:57:10.673Z,19.40
2023-04-27T08:02:18.501Z,19.44
2023-04-27T08:07:11.143Z,19.66
2023-04-27T08:12:10.690Z,19.39
2023-04-27T08:17:10.831Z,20.19
2023-04-27T08:22:10.604Z,21.20
2023-04-27T08:27:10.666Z,20.31
2023-04-27T08:32:10.656Z,19.22
2023-04-27T08:37:10.656Z,17.75
2023-04-27T08:42:11.095Z,16.92
2023-04-27T08:47:11.311Z,15.67
2023-04-27T08:52:11.686Z,14.96
2023-04-27T08:57:10.909Z,14.37
2023-04-27T09:02:20.490Z,13.81
2023-04-27T09:07:11.963Z,13.20
2023-04-27T09:12:15.030Z,12.79
2023-04-27T09:17:10.632Z,12.49
2023-04-27T09:22:10.668Z,12.22
2023-04-27T09:27:18.858Z,12.25
2023-04-27T09:32:16.778Z,12.11
2023-04-27T09:37:11.403Z,12.00
2023-04-27T09:42:11.294Z,11.90
2023-04-27T09:47:13.110Z,11.87
2023-04-27T09:52:10.690Z,11.62
2023-04-27T09:57:27.693Z,12.04
2023-04-27T10:02:24.766Z,12.21
2023-04-27T10:07:12.212Z,11.95
2023-04-27T10:12:22.008Z,11.79
2023-04-27T10:17:10.757Z,11.64
2023-04-27T10:22:10.387Z,11.45
2023-04-27T10:27:14.998Z,11.46
2023-04-27T10:32:12.621Z,11.55
2023-04-27T10:37:11.533Z,11.76
2023-04-27T10:42:10.730Z,11.73
2023-04-27T10:47:14.445Z,11.61
2023-04-27T10:52:10.583Z,11.58
2023-04-27T10:57:11.636Z,11.56
2023-04-27T11:02:11.199Z,12.01
2023-04-27T11:07:11.614Z,12.11
2023-04-27T11:12:11.901Z,11.78
2023-04-27T11:17:12.276Z,11.62
2023-04-27T11:22:10.581Z,11.32
2023-04-27T11:26:27.928Z,11.00
2023-04-27T11:27:10.332Z,11.00
2023-04-27T11:32:18.944Z,10.97
2023-04-27T11:36:15.947Z,10.96
2023-04-27T11:37:20.873Z,10.96
2023-04-27T11:42:14.188Z,10.78
2023-04-27T11:47:18.272Z,10.69
2023-04-27T11:52:10.616Z,10.74
2023-04-27T11:57:10.426Z,10.77
2023-04-27T12:02:10.821Z,11.03
2023-04-27T12:07:11.302Z,11.47
2023-04-27T12:12:11.969Z,11.82
2023-04-27T12:17:10.921Z,12.16
2023-04-27T12:22:10.840Z,12.83
2023-04-27T12:27:11.211Z,12.72
2023-04-27T12:32:10.646Z,12.37
2023-04-27T12:37:11.031Z,12.03
2023-04-27T12:42:10.658Z,11.92
2023-04-27T12:47:12.280Z,11.79
2023-04-27T12:52:10.405Z,11.85
2023-04-27T12:57:10.300Z,12.48
2023-04-27T13:02:11.527Z,13.08
2023-04-27T13:07:11.068Z,13.27
2023-04-27T13:12:10.321Z,13.33
2023-04-27T13:17:10.651Z,13.20
2023-04-27T13:22:10.742Z,13.05
2023-04-27T13:27:10.602Z,12.72
2023-04-27T13:32:10.409Z,12.56
2023-04-27T13:37:10.546Z,12.58
2023-04-27T13:42:10.550Z,12.30
2023-04-27T13:47:11.389Z,12.23
2023-04-27T13:52:10.486Z,11.76
2023-04-27T13:57:10.375Z,11.54
2023-04-27T14:02:10.598Z,11.61
2023-04-27T14:07:10.340Z,12.28
2023-04-27T14:12:10.635Z,12.27
2023-04-27T14:17:10.590Z,12.41
2023-04-27T14:22:10.442Z,12.29
2023-04-27T14:27:10.344Z,12.13
2023-04-27T14:32:10.622Z,11.83
2023-04-27T14:37:10.489Z,11.95
2023-04-27T14:42:10.524Z,11.89
2023-04-27T14:47:10.398Z,12.06
2023-04-27T14:52:10.316Z,11.78
2023-04-27T14:57:10.225Z,11.59
2023-04-27T15:02:10.540Z,11.71
2023-04-27T15:07:10.523Z,11.73
2023-04-27T15:12:10.245Z,11.51
2023-04-27T15:17:12.322Z,11.46
2023-04-27T15:22:10.409Z,11.23
2023-04-27T15:27:10.461Z,11.11
2023-04-27T15:32:10.787Z,10.90
2023-04-27T15:37:10.820Z,10.65
2023-04-27T15:42:10.334Z,10.56
2023-04-27T15:47:12.330Z,10.39
2023-04-27T15:52:10.186Z,10.27
2023-04-27T15:57:10.295Z,10.19
2023-04-27T16:02:11.215Z,10.11
2023-04-27T16:07:10.227Z,10.24
2023-04-27T16:12:10.187Z,10.30
2023-04-27T16:17:10.750Z,10.27
2023-04-27T16:22:10.155Z,10.36
2023-04-27T16:27:10.648Z,10.35
2023-04-27T16:32:11.067Z,10.41
2023-04-27T16:37:10.538Z,10.46
2023-04-27T16:42:08.686Z,10.44
2023-04-27T16:42:11.795Z,10.44
2023-04-27T16:47:10.327Z,10.53
2023-04-27T16:47:37.595Z,10.53
2023-04-27T16:52:11.746Z,10.54
2023-04-27T16:56:41.296Z,10.45
2023-04-27T16:57:12.239Z,10.45
2023-04-27T17:02:23.952Z,10.39
2023-04-27T17:07:10.345Z,10.30
2023-04-27T17:12:12.319Z,10.18
2023-04-27T17:17:10.556Z,10.12
2023-04-27T17:18:20.610Z,9.99
2023-04-27T17:18:42.007Z,9.99
2023-04-27T17:27:15.790Z,9.84
2023-04-27T17:32:10.098Z,9.67
2023-04-27T17:37:10.416Z,9.43
2023-04-27T17:42:11.095Z,9.20
2023-04-27T17:47:10.597Z,9.04
2023-04-27T17:52:10.238Z,8.96
2023-04-27T17:57:10.332Z,8.85
2023-04-27T18:02:10.125Z,8.73
2023-04-27T18:07:10.273Z,8.61
2023-04-27T18:12:10.481Z,8.55
2023-04-27T18:17:10.240Z,8.44
2023-04-27T18:22:10.154Z,8.35
2023-04-27T18:27:10.813Z,8.35
2023-04-27T18:32:10.219Z,8.35
2023-04-27T18:37:10.226Z,8.37
2023-04-27T18:42:10.493Z,8.40
2023-04-27T18:47:12.706Z,8.35
2023-04-27T18:52:10.405Z,8.28
2023-04-27T18:57:10.306Z,8.17
2023-04-27T19:02:10.101Z,8.10
2023-04-27T19:02:14.993Z,8.10
2023-04-27T19:03:07.831Z,8.11
2023-04-27T19:07:10.097Z,8.11
2023-04-27T19:12:10.508Z,8.10
2023-04-27T19:17:10.907Z,8.08
2023-04-27T19:22:10.226Z,8.02
2023-04-27T19:27:14.923Z,7.93
2023-04-27T19:32:09.979Z,7.91
2023-04-27T19:37:10.127Z,7.86
2023-04-27T19:39:07.914Z,7.77
2023-04-27T19:42:10.392Z,7.77
2023-04-27T19:47:10.123Z,7.67
2023-04-27T19:52:10.311Z,7.56
2023-04-27T19:57:10.039Z,7.45
2023-04-27T20:02:10.142Z,7.36
2023-04-27T20:07:11.102Z,7.25
2023-04-27T20:12:19.640Z,7.15
2023-04-27T20:17:10.251Z,7.07
2023-04-27T20:22:10.190Z,6.97
2023-04-27T20:27:11.604Z,6.89
2023-04-27T20:30:03.024Z,6.81
2023-04-27T20:32:09.955Z,6.81
2023-04-27T20:37:10.266Z,6.72
2023-04-27T20:42:11.529Z,6.64
2023-04-27T20:43:00.347Z,6.58
2023-04-27T21:11:07.736Z,6.43
2023-04-27T21:12:38.578Z,6.37
2023-04-27T21:17:38.674Z,6.34
2023-04-27T21:22:38.681Z,6.31
2023-04-27T21:27:39.703Z,6.29
2023-04-27T21:32:38.677Z,6.28
2023-04-27T21:37:38.772Z,6.26
2023-04-27T21:42:38.672Z,6.23
2023-04-27T21:44:00.584Z,6.23
2023-04-27T21:47:38.648Z,6.19
2023-04-27T21:52:39.134Z,6.14
2023-04-27T21:57:38.597Z,6.07
2023-04-27T22:02:39.320Z,6.00
2023-04-27T22:07:38.966Z,5.97
2023-04-27T22:12:38.793Z,5.93
2023-04-27T22:17:39.682Z,5.87
2023-04-27T22:22:39.803Z,5.81
2023-04-27T22:27:45.002Z,5.75
2023-04-27T22:30:00.537Z,5.75
2023-04-27T22:32:38.604Z,5.68
2023-04-27T22:33:18.596Z,5.68
2023-04-27T22:37:38.902Z,5.67
2023-04-27T22:41:45.196Z,5.64
2023-04-27T22:43:36.005Z,5.64
2023-04-27T22:47:40.210Z,5.61
2023-04-27T22:50:28.093Z,5.61
2023-04-27T22:52:41.022Z,5.63
2023-04-27T22:57:40.010Z,5.72
2023-04-27T23:02:39.486Z,5.77
2023-04-27T23:07:40.151Z,5.81
2023-04-27T23:12:27.107Z,5.86
2023-04-27T23:12:39.124Z,5.86
2023-04-27T23:17:39.462Z,5.85
2023-04-27T23:20:53.493Z,5.85
2023-04-27T23:22:42.529Z,5.86
2023-04-27T23:27:38.550Z,5.87
2023-04-27T23:30:31.521Z,5.87
2023-04-27T23:30:52.956Z,5.87
2023-04-27T23:32:38.876Z,5.67
2023-04-27T23:37:38.757Z,5.65
2023-04-27T23:42:38.560Z,5.59
2023-04-27T23:47:38.629Z,5.48
2023-04-27T23:52:38.926Z,5.34
2023-04-27T23:52:48.542Z,5.34
2023-04-27T23:58:21.044Z,5.26
